Terminal Aerodrome Forecast
Issued by NWS King Salmon, AK

Home | Current Version | Previous Version | Text Only | Print | Product List | Glossary On
Versions: 1 2 3 4 5 6 7 8 9 10 11 12 13 14 15 16
000
FTAK31 PANC 301307 AAA
TAFAKN
TAF AMD
PAKN 301307Z 3013/3112 21008KT 4SM -RA BR BKN008 OVC014
      TEMPO 3013/3017 P6SM NSW SCT005 BKN008
     FM301800 20012G20KT P6SM VCSH BKN035
     FM310900 17010KT 5SM -RA BR BKN020 OVC035=

USA.gov is the U.S. government's official web portal to all federal, state and local government web resources and services.